Time;durP1;ratioP1;P1;durP2;ratioP2;P2;SDS_P1;SDS_P2;PMS_P1;PMS_P2;Temp;Humidity;BMP_temperature;BMP_pressure;BME280_temperature;BME280_humidity;BME280_pressure;Samples;Min_cycle;Max_cycle;Signal;HPM_P1;HPM_P2
2023/04/15 00:02:24;;;;;;;21.20;19.00;;;11.10;99.90;;;;;;5106143;28;20239;-77
2023/04/15 00:04:53;;;;;;;20.98;18.67;;;11.10;99.90;;;;;;5094956;28;20304;-78
2023/04/15 00:07:20;;;;;;;23.73;20.63;;;11.10;99.90;;;;;;5093818;28;20661;-77
2023/04/15 00:09:47;;;;;;;20.58;18.35;;;11.10;99.90;;;;;;5094853;28;20227;-77
2023/04/15 00:12:14;;;;;;;22.60;20.20;;;11.10;99.90;;;;;;5093183;28;20255;-77
2023/04/15 00:14:43;;;;;;;21.73;18.55;;;11.10;99.90;;;;;;5093325;28;20381;-77
2023/04/15 00:17:21;;;;;;;21.50;19.20;;;11.10;99.90;;;;;;5083178;28;20251;-78
2023/04/15 00:19:48;;;;;;;22.95;20.15;;;11.10;99.90;;;;;;5074026;28;20235;-77
2023/04/15 00:22:16;;;;;;;24.85;22.20;;;11.20;99.90;;;;;;5073648;28;20595;-77
2023/04/15 00:24:43;;;;;;;23.42;19.60;;;11.10;99.90;;;;;;5075467;28;20224;-77
2023/04/15 00:27:10;;;;;;;25.95;20.25;;;11.20;99.90;;;;;;5074134;28;20322;-77
2023/04/15 00:29:37;;;;;;;25.27;22.23;;;11.20;99.90;;;;;;5074932;28;20231;-77
2023/04/15 00:32:06;;;;;;;24.23;21.63;;;11.20;99.90;;;;;;5074701;28;20247;-78
2023/04/15 00:34:33;;;;;;;26.40;21.95;;;11.20;99.90;;;;;;5074520;28;20224;-78
2023/04/15 00:37:01;;;;;;;26.98;20.73;;;11.10;99.90;;;;;;5073787;28;20277;-77
2023/04/15 00:39:37;;;;;;;22.52;20.13;;;11.10;99.90;;;;;;5074222;28;20223;-78
2023/04/15 00:42:05;;;;;;;25.10;21.05;;;11.20;99.90;;;;;;5074220;28;20255;-77
2023/04/15 00:44:32;;;;;;;24.30;21.70;;;11.10;99.90;;;;;;5074179;28;20228;-78
2023/04/15 00:47:01;;;;;;;24.83;21.30;;;11.10;99.90;;;;;;5084978;28;20224;-78
2023/04/15 00:49:34;;;;;;;26.23;23.00;;;11.10;99.90;;;;;;5092821;28;20223;-76
2023/04/15 00:52:02;;;;;;;27.48;22.40;;;11.10;99.90;;;;;;5094185;28;20227;-77
2023/04/15 00:54:30;;;;;;;26.05;23.25;;;11.10;99.90;;;;;;5105443;28;20226;-78
2023/04/15 00:56:58;;;;;;;27.70;22.52;;;11.10;99.90;;;;;;5114514;28;20226;-78
2023/04/15 00:59:26;;;;;;;24.60;21.52;;;11.10;99.90;;;;;;5112796;28;20245;-77
2023/04/15 01:01:53;;;;;;;22.50;19.90;;;11.10;99.90;;;;;;5112157;28;20535;-76
2023/04/15 01:04:27;;;;;;;28.23;24.80;;;11.10;99.90;;;;;;5095143;28;20568;-78
2023/04/15 01:06:55;;;;;;;27.52;23.08;;;11.10;99.90;;;;;;5098248;28;20250;-79
2023/04/15 01:09:23;;;;;;;31.83;25.65;;;11.10;99.90;;;;;;5104566;28;20219;-77
2023/04/15 01:11:50;;;;;;;28.77;24.50;;;11.10;99.90;;;;;;5100595;28;20229;-78
2023/04/15 01:14:17;;;;;;;26.70;22.25;;;11.00;99.90;;;;;;5107119;28;20211;-78
2023/04/15 01:16:47;;;;;;;26.88;23.27;;;11.10;99.90;;;;;;5109833;28;20250;-78
2023/04/15 01:19:17;;;;;;;28.67;25.55;;;11.10;99.90;;;;;;5097436;28;20227;-78
2023/04/15 01:21:47;;;;;;;31.90;26.17;;;11.10;99.90;;;;;;5106768;28;20229;-78
2023/04/15 01:24:20;;;;;;;31.05;23.92;;;11.00;99.90;;;;;;5099338;28;20218;-77
2023/04/15 01:26:49;;;;;;;31.60;24.35;;;11.00;99.90;;;;;;5099102;28;20231;-78
2023/04/15 01:29:18;;;;;;;30.20;24.60;;;11.10;99.90;;;;;;5100382;28;20212;-78
2023/04/15 01:31:51;;;;;;;29.00;23.60;;;11.10;99.90;;;;;;5100180;28;20227;-77
2023/04/15 01:34:18;;;;;;;29.92;24.35;;;11.10;99.90;;;;;;5090569;28;20238;-78
2023/04/15 01:36:46;;;;;;;34.03;26.05;;;11.00;99.90;;;;;;5101451;28;20234;-76
2023/04/15 01:39:13;;;;;;;27.50;22.90;;;11.10;99.90;;;;;;5105076;28;20250;-78
2023/04/15 01:41:41;;;;;;;39.25;27.33;;;11.10;99.90;;;;;;5099783;28;20603;-78
2023/04/15 01:44:09;;;;;;;32.92;25.65;;;11.10;99.90;;;;;;5093384;28;20215;-78
2023/04/15 01:46:37;;;;;;;29.02;23.73;;;11.10;99.90;;;;;;5093227;28;20227;-76
2023/04/15 01:49:07;;;;;;;32.80;24.83;;;11.10;99.90;;;;;;5093643;28;20215;-79
2023/04/15 01:51:34;;;;;;;38.33;28.70;;;11.10;99.90;;;;;;5092766;28;20236;-78
2023/04/15 01:54:05;;;;;;;33.00;26.73;;;11.10;99.90;;;;;;5105001;28;20294;-76
2023/04/15 01:57:25;;;;;;;32.30;25.20;;;11.10;99.90;;;;;;5087635;28;20227;-77
2023/04/15 01:59:53;;;;;;;33.83;26.75;;;11.10;99.90;;;;;;5072376;28;20251;-75
2023/04/15 02:02:20;;;;;;;32.70;25.67;;;11.10;99.90;;;;;;5072880;28;20327;-77
2023/04/15 02:04:47;;;;;;;30.95;25.30;;;11.10;99.90;;;;;;5081621;28;20247;-78
2023/04/15 02:07:17;;;;;;;31.95;26.52;;;11.10;99.90;;;;;;5092822;28;20226;-77
2023/04/15 02:09:44;;;;;;;33.97;25.98;;;11.10;99.90;;;;;;5093063;28;20230;-78
2023/04/15 02:12:15;;;;;;;28.92;24.15;;;11.10;99.90;;;;;;5095037;28;20212;-77
2023/04/15 02:14:45;;;;;;;33.30;25.98;;;11.10;99.90;;;;;;5090550;28;20661;-77
2023/04/15 02:17:13;;;;;;;34.08;25.85;;;11.10;99.90;;;;;;5103403;28;20718;-75
2023/04/15 02:19:41;;;;;;;30.00;24.33;;;11.10;99.90;;;;;;5098859;28;20223;-75
2023/04/15 02:22:08;;;;;;;29.60;25.15;;;11.10;99.90;;;;;;5099726;28;20253;-77
2023/04/15 02:24:35;;;;;;;35.63;26.83;;;11.10;99.90;;;;;;5088460;28;20276;-76
2023/04/15 02:27:02;;;;;;;32.65;26.70;;;11.10;99.90;;;;;;5093692;28;20323;-75
2023/04/15 02:29:29;;;;;;;32.50;27.17;;;11.10;99.90;;;;;;5093604;28;20265;-76
2023/04/15 02:31:56;;;;;;;31.88;25.40;;;11.10;99.90;;;;;;5093626;28;20710;-78
2023/04/15 02:34:27;;;;;;;32.03;24.80;;;11.10;99.90;;;;;;5095189;28;20306;-78
2023/04/15 02:36:56;;;;;;;33.75;24.55;;;11.20;99.90;;;;;;5093354;28;20228;-78
2023/04/15 02:39:23;;;;;;;29.50;23.75;;;11.20;99.90;;;;;;5094601;28;20223;-77
2023/04/15 02:41:51;;;;;;;36.47;27.73;;;11.20;99.90;;;;;;5093566;28;20227;-76
2023/04/15 02:44:19;;;;;;;32.85;25.73;;;11.20;99.90;;;;;;5094916;28;20626;-77
2023/04/15 02:46:49;;;;;;;29.25;22.83;;;11.10;99.90;;;;;;5085163;28;20261;-77
2023/04/15 02:49:18;;;;;;;31.30;24.98;;;11.20;99.90;;;;;;5095034;28;20222;-77
2023/04/15 02:51:48;;;;;;;30.90;24.70;;;11.20;99.90;;;;;;5095625;28;20219;-77
2023/04/15 02:54:15;;;;;;;31.98;24.10;;;11.20;99.90;;;;;;5097077;28;20227;-77
2023/04/15 02:56:43;;;;;;;31.30;25.90;;;11.20;99.90;;;;;;5096206;28;20231;-79
2023/04/15 02:59:11;;;;;;;32.17;24.55;;;11.20;99.90;;;;;;5083815;28;20234;-76
2023/04/15 03:01:39;;;;;;;28.75;23.42;;;11.20;99.90;;;;;;5091122;28;20306;-76
2023/04/15 03:04:07;;;;;;;29.80;23.02;;;11.20;99.90;;;;;;5093008;28;20223;-79
2023/04/15 03:06:35;;;;;;;27.67;22.65;;;11.20;99.90;;;;;;5094398;28;20228;-77
2023/04/15 03:09:07;;;;;;;32.03;25.20;;;11.20;99.90;;;;;;5092592;28;20224;-78
2023/04/15 03:11:34;;;;;;;29.52;24.27;;;11.20;99.90;;;;;;5094160;28;20223;-77
2023/04/15 03:14:04;;;;;;;30.25;24.88;;;11.20;99.90;;;;;;5093465;28;20219;-78
2023/04/15 03:16:40;;;;;;;32.05;23.60;;;11.20;99.90;;;;;;5099838;28;20231;-79
2023/04/15 03:19:07;;;;;;;28.90;24.00;;;11.20;99.90;;;;;;5097705;28;20227;-77
2023/04/15 03:21:35;;;;;;;31.48;23.88;;;11.20;99.90;;;;;;5095949;28;20227;-78
2023/04/15 03:24:07;;;;;;;25.95;21.40;;;11.20;99.90;;;;;;5096753;28;20532;-78
2023/04/15 03:26:35;;;;;;;29.98;22.95;;;11.20;99.90;;;;;;5097721;28;20284;-78
2023/04/15 03:29:02;;;;;;;31.23;23.30;;;11.30;99.90;;;;;;5094793;28;20290;-77
2023/04/15 03:31:29;;;;;;;32.80;24.30;;;11.20;99.90;;;;;;5095722;28;20266;-77
2023/04/15 03:33:56;;;;;;;29.23;24.20;;;11.30;99.90;;;;;;5095687;28;20732;-77
2023/04/15 03:36:23;;;;;;;30.45;24.58;;;11.30;99.90;;;;;;5095907;28;20260;-79
2023/04/15 03:38:50;;;;;;;29.55;23.52;;;11.30;99.90;;;;;;5095534;28;20231;-78
2023/04/15 03:41:18;;;;;;;27.05;21.45;;;11.30;99.90;;;;;;5095471;28;20219;-78
2023/04/15 03:43:47;;;;;;;31.90;25.00;;;11.30;99.90;;;;;;5094995;28;20612;-78
2023/04/15 03:46:46;;;;;;;28.88;23.38;;;11.30;99.90;;;;;;5096082;28;20309;-76
2023/04/15 03:49:15;;;;;;;31.02;24.70;;;11.30;99.90;;;;;;5094973;28;20285;-77
2023/04/15 03:51:49;;;;;;;30.58;21.13;;;11.40;99.90;;;;;;5095152;28;20227;-77
2023/04/15 03:54:17;;;;;;;34.10;25.52;;;11.40;99.90;;;;;;5093814;28;20225;-77
2023/04/15 03:56:46;;;;;;;30.35;22.05;;;11.30;99.90;;;;;;5085635;28;20247;-77
2023/04/15 03:59:13;;;;;;;25.38;20.75;;;11.30;99.90;;;;;;5094721;28;20306;-79
2023/04/15 04:01:40;;;;;;;26.27;22.48;;;11.30;99.90;;;;;;5096328;28;20223;-78
2023/04/15 04:04:06;;;;;;;27.08;22.08;;;11.40;99.90;;;;;;5095566;28;20224;-79
2023/04/15 04:06:41;;;;;;;28.25;23.10;;;11.40;99.90;;;;;;5085845;28;20302;-78
2023/04/15 04:09:19;;;;;;;29.00;24.13;;;11.40;99.90;;;;;;5094453;28;20314;-77
2023/04/15 04:11:48;;;;;;;26.48;22.70;;;11.40;99.90;;;;;;5095213;28;20227;-79
2023/04/15 04:14:15;;;;;;;28.23;22.38;;;11.40;99.90;;;;;;5094751;28;20601;-77
2023/04/15 04:16:42;;;;;;;26.92;22.77;;;11.40;99.90;;;;;;5094824;28;20231;-77
2023/04/15 04:19:09;;;;;;;27.67;22.88;;;11.40;99.90;;;;;;5093170;28;20284;-77
2023/04/15 04:21:37;;;;;;;28.77;22.92;;;11.40;99.90;;;;;;5095721;28;20223;-76
2023/04/15 04:24:05;;;;;;;27.77;21.75;;;11.40;99.90;;;;;;5094363;28;20231;-77
2023/04/15 04:26:32;;;;;;;26.15;21.48;;;11.40;99.90;;;;;;5094584;28;20625;-77
2023/04/15 04:29:01;;;;;;;25.90;20.98;;;11.40;99.90;;;;;;5093860;28;20222;-78
2023/04/15 04:31:28;;;;;;;21.60;19.30;;;11.50;99.90;;;;;;5094957;28;20235;-80
2023/04/15 04:33:55;;;;;;;23.33;20.00;;;11.50;99.90;;;;;;5094378;28;20295;-78
2023/04/15 04:36:22;;;;;;;26.52;21.33;;;11.50;99.90;;;;;;5094290;28;20296;-76
2023/04/15 04:38:50;;;;;;;22.13;19.80;;;11.50;99.90;;;;;;5094448;28;20540;-76
2023/04/15 04:41:17;;;;;;;22.98;19.45;;;11.50;99.90;;;;;;5072927;28;20231;-78
2023/04/15 04:43:44;;;;;;;24.98;19.83;;;11.50;99.90;;;;;;5095148;28;20242;-78
2023/04/15 04:46:13;;;;;;;25.58;20.45;;;11.60;99.90;;;;;;5093655;28;20227;-77
2023/04/15 04:48:43;;;;;;;23.63;21.15;;;11.60;99.90;;;;;;5094618;28;20263;-78
2023/04/15 04:51:13;;;;;;;23.33;20.17;;;11.60;99.90;;;;;;5094323;28;20275;-78
2023/04/15 04:53:41;;;;;;;26.15;21.83;;;11.60;99.90;;;;;;5081298;28;20231;-76
2023/04/15 04:56:09;;;;;;;23.67;20.15;;;11.60;99.90;;;;;;5093912;28;20234;-78
2023/04/15 04:58:37;;;;;;;29.92;22.80;;;11.60;99.90;;;;;;5093320;28;20296;-77
2023/04/15 05:01:04;;;;;;;23.65;20.35;;;11.60;99.90;;;;;;5094614;28;20238;-78
2023/04/15 05:03:35;;;;;;;22.65;20.23;;;11.60;99.90;;;;;;5093186;28;20306;-78
2023/04/15 05:06:05;;;;;;;24.10;19.90;;;11.60;99.90;;;;;;5094161;28;20276;-77
2023/04/15 05:08:32;;;;;;;23.38;19.95;;;11.60;99.90;;;;;;5093604;28;20224;-77
2023/04/15 05:11:03;;;;;;;23.42;20.38;;;11.60;99.90;;;;;;5094180;28;20222;-78
2023/04/15 05:13:30;;;;;;;24.33;21.08;;;11.60;99.90;;;;;;5093641;28;20219;-78
2023/04/15 05:15:57;;;;;;;27.27;19.83;;;11.60;99.90;;;;;;5094638;28;20314;-78
2023/04/15 05:18:24;;;;;;;28.13;22.08;;;11.60;99.90;;;;;;5093231;28;20220;-78
2023/04/15 05:20:53;;;;;;;21.52;18.92;;;11.60;99.90;;;;;;5090684;28;20310;-78
2023/04/15 05:23:22;;;;;;;22.00;19.65;;;11.60;99.90;;;;;;5093542;28;20310;-79
2023/04/15 05:25:49;;;;;;;22.60;19.67;;;11.60;99.90;;;;;;5094006;28;20241;-79
2023/04/15 05:28:16;;;;;;;20.92;18.70;;;11.60;99.90;;;;;;5093693;28;20211;-79
2023/04/15 05:30:43;;;;;;;25.00;21.67;;;11.70;99.90;;;;;;5093641;28;20219;-79
2023/04/15 05:33:10;;;;;;;23.08;20.38;;;11.70;99.90;;;;;;5093040;28;20222;-79
2023/04/15 05:35:37;;;;;;;17.95;15.93;;;11.70;99.90;;;;;;5092084;28;20315;-79
2023/04/15 05:38:06;;;;;;;22.88;17.27;;;11.70;99.90;;;;;;5093189;28;20297;-78
2023/04/15 05:40:34;;;;;;;20.40;16.75;;;11.70;99.90;;;;;;5092962;28;20237;-77
2023/04/15 05:43:01;;;;;;;20.50;18.50;;;11.80;99.90;;;;;;5093273;28;20276;-77
2023/04/15 05:45:28;;;;;;;23.08;19.02;;;11.70;99.90;;;;;;5108662;28;20246;-76
2023/04/15 05:47:55;;;;;;;20.90;18.70;;;11.80;99.90;;;;;;5097331;28;20238;-77
2023/04/15 05:50:23;;;;;;;21.65;18.02;;;11.80;99.90;;;;;;5111180;28;20218;-78
2023/04/15 05:52:50;;;;;;;19.77;17.55;;;11.80;99.90;;;;;;5108519;28;20223;-78
2023/04/15 05:55:19;;;;;;;18.35;16.50;;;11.90;99.90;;;;;;5094708;28;20247;-78
2023/04/15 05:57:49;;;;;;;20.80;18.65;;;11.90;99.90;;;;;;5093366;28;20235;-78
2023/04/15 06:00:16;;;;;;;20.98;17.15;;;11.90;99.90;;;;;;5092768;28;20239;-78
2023/04/15 06:02:43;;;;;;;20.73;18.20;;;12.00;99.90;;;;;;5092949;28;20703;-78
2023/04/15 06:05:10;;;;;;;17.80;15.98;;;12.00;99.90;;;;;;5092908;28;20330;-78
2023/04/15 06:07:38;;;;;;;20.25;18.15;;;12.00;99.90;;;;;;5091780;28;20229;-78
2023/04/15 06:10:06;;;;;;;18.52;16.00;;;12.00;99.90;;;;;;5093009;28;20215;-78
2023/04/15 06:12:35;;;;;;;20.88;15.45;;;12.10;99.90;;;;;;5092335;28;20224;-78
2023/04/15 06:15:05;;;;;;;17.05;15.25;;;12.10;99.90;;;;;;5092833;28;20306;-77
2023/04/15 06:17:32;;;;;;;19.20;16.75;;;12.20;99.90;;;;;;5092591;28;20227;-77
2023/04/15 06:19:59;;;;;;;17.67;15.85;;;12.20;99.90;;;;;;5092717;28;20219;-77
2023/04/15 06:22:26;;;;;;;15.60;14.13;;;12.20;99.90;;;;;;5092686;28;20230;-77
2023/04/15 06:24:54;;;;;;;16.80;15.10;;;12.20;99.90;;;;;;5091862;28;20218;-76
2023/04/15 06:27:25;;;;;;;17.95;16.23;;;12.20;99.90;;;;;;5092127;28;20628;-78
2023/04/15 06:29:53;;;;;;;17.83;15.90;;;12.30;99.90;;;;;;5091626;28;20231;-78
2023/04/15 06:32:20;;;;;;;16.50;14.90;;;12.30;99.90;;;;;;5093115;28;20697;-78
2023/04/15 06:34:47;;;;;;;19.17;16.25;;;12.30;99.90;;;;;;5091379;28;20230;-78
2023/04/15 06:37:15;;;;;;;17.85;15.60;;;12.30;99.90;;;;;;5092850;28;20280;-76
2023/04/15 06:39:44;;;;;;;23.00;15.77;;;12.30;99.90;;;;;;5091063;28;20273;-77
2023/04/15 06:42:11;;;;;;;20.27;14.77;;;12.40;99.90;;;;;;5092487;28;20223;-76
2023/04/15 06:44:38;;;;;;;21.45;15.70;;;12.40;99.90;;;;;;5092155;28;20235;-76
2023/04/15 06:47:07;;;;;;;16.52;14.90;;;12.50;99.90;;;;;;5094091;28;20267;-78
2023/04/15 06:49:35;;;;;;;16.60;13.65;;;12.50;99.90;;;;;;5087338;28;20215;-78
2023/04/15 06:52:04;;;;;;;17.55;14.40;;;12.50;99.90;;;;;;5096689;28;20289;-77
2023/04/15 06:54:31;;;;;;;14.07;12.73;;;12.60;99.90;;;;;;5096218;28;20233;-76
2023/04/15 06:57:00;;;;;;;15.25;13.63;;;12.60;99.90;;;;;;5095287;28;20590;-76
2023/04/15 06:59:27;;;;;;;15.05;13.55;;;12.60;99.90;;;;;;5095728;28;20318;-77
2023/04/15 07:01:54;;;;;;;12.73;11.55;;;12.60;99.90;;;;;;5085203;28;20306;-78
2023/04/15 07:04:23;;;;;;;14.00;12.68;;;12.60;99.90;;;;;;5096183;28;20294;-78
2023/04/15 07:06:50;;;;;;;12.32;11.02;;;12.60;99.90;;;;;;5095587;28;20223;-78
2023/04/15 07:09:17;;;;;;;13.63;12.27;;;12.60;99.90;;;;;;5096022;28;20230;-77
2023/04/15 07:11:44;;;;;;;14.18;12.68;;;12.50;99.90;;;;;;5095640;28;20223;-77
2023/04/15 07:14:11;;;;;;;13.25;11.85;;;12.50;99.90;;;;;;5096174;28;20216;-77
2023/04/15 07:16:38;;;;;;;15.65;13.50;;;12.50;99.90;;;;;;5095335;28;20645;-77
2023/04/15 07:19:06;;;;;;;14.27;12.85;;;12.50;99.90;;;;;;5093960;28;20223;-77
2023/04/15 07:21:35;;;;;;;12.32;11.15;;;12.50;99.90;;;;;;5079092;28;20560;-76
2023/04/15 07:24:05;;;;;;;13.57;12.05;;;12.50;99.90;;;;;;5095296;28;20223;-76
2023/04/15 07:26:35;;;;;;;13.00;11.80;;;12.40;99.90;;;;;;5095432;28;20617;-78
2023/04/15 07:29:04;;;;;;;13.98;12.02;;;12.50;99.90;;;;;;5095008;28;20253;-76
2023/04/15 07:31:31;;;;;;;13.73;12.52;;;12.40;99.90;;;;;;5095866;28;20223;-76
2023/04/15 07:34:03;;;;;;;13.52;12.23;;;12.40;99.90;;;;;;5095246;28;20220;-77
2023/04/15 07:36:30;;;;;;;14.60;13.20;;;12.50;99.90;;;;;;5095610;28;20231;-77
2023/04/15 07:39:00;;;;;;;13.98;12.65;;;12.40;99.90;;;;;;5095078;28;20314;-78
2023/04/15 07:41:27;;;;;;;13.38;12.13;;;12.50;99.90;;;;;;5096534;28;20591;-78
2023/04/15 07:43:55;;;;;;;12.35;11.20;;;12.50;99.90;;;;;;5095305;28;20223;-78
2023/04/15 07:46:23;;;;;;;16.25;13.20;;;12.60;99.90;;;;;;5095591;28;20228;-77
2023/04/15 07:48:51;;;;;;;14.77;13.15;;;12.60;99.90;;;;;;5086808;28;20556;-79
2023/04/15 07:51:19;;;;;;;12.70;11.60;;;12.60;99.90;;;;;;5085242;28;20250;-78
2023/04/15 07:53:48;;;;;;;15.80;14.18;;;12.60;99.90;;;;;;5086480;28;20230;-79
2023/04/15 07:56:20;;;;;;;14.10;12.75;;;12.50;99.90;;;;;;5097319;28;20280;-77
2023/04/15 07:58:47;;;;;;;13.35;12.05;;;12.60;99.90;;;;;;5094814;28;20266;-79
2023/04/15 08:01:15;;;;;;;14.77;13.43;;;12.60;99.90;;;;;;5090551;28;20679;-77
2023/04/15 08:03:42;;;;;;;15.93;14.38;;;12.50;99.90;;;;;;5089129;28;20292;-79
2023/04/15 08:06:09;;;;;;;14.48;12.95;;;12.50;99.90;;;;;;5094606;28;20310;-78
2023/04/15 08:08:36;;;;;;;13.95;12.27;;;12.50;99.90;;;;;;5092186;28;20280;-78
2023/04/15 08:11:03;;;;;;;14.45;13.10;;;12.40;99.90;;;;;;5094165;28;20299;-79
2023/04/15 08:13:32;;;;;;;15.43;13.23;;;12.40;99.90;;;;;;5096780;28;20296;-77
2023/04/15 08:16:20;;;;;;;15.35;13.93;;;12.40;99.90;;;;;;5096533;28;20281;-79
2023/04/15 08:18:48;;;;;;;14.88;13.40;;;12.40;99.90;;;;;;5098080;28;20219;-77
2023/04/15 08:21:18;;;;;;;16.70;15.13;;;12.40;99.90;;;;;;5099899;28;20223;-77
2023/04/15 08:23:46;;;;;;;15.80;14.10;;;12.40;99.90;;;;;;5098643;28;20234;-77
2023/04/15 08:26:13;;;;;;;14.55;13.25;;;12.40;99.90;;;;;;5093833;28;20591;-76
2023/04/15 08:28:48;;;;;;;14.38;13.07;;;12.40;99.90;;;;;;5093255;28;20246;-76
2023/04/15 08:31:16;;;;;;;13.80;12.52;;;12.40;99.90;;;;;;5048409;28;20226;-78
2023/04/15 08:33:46;;;;;;;16.80;15.10;;;12.40;99.90;;;;;;5078303;28;20293;-77
2023/04/15 08:36:15;;;;;;;13.55;12.30;;;12.40;99.90;;;;;;5090150;28;20228;-78
2023/04/15 08:38:42;;;;;;;15.85;14.35;;;12.40;99.90;;;;;;5095864;28;20352;-77
2023/04/15 08:41:16;;;;;;;16.77;15.02;;;12.40;99.90;;;;;;5093667;28;20231;-78
2023/04/15 08:43:51;;;;;;;16.73;14.85;;;12.40;99.90;;;;;;5094488;28;20263;-78
2023/04/15 08:46:19;;;;;;;14.45;13.15;;;12.40;99.90;;;;;;5093088;28;20303;-77
2023/04/15 08:48:48;;;;;;;14.80;13.25;;;12.50;99.90;;;;;;5094705;28;20220;-77
2023/04/15 08:51:18;;;;;;;15.50;13.80;;;12.50;99.90;;;;;;5093747;28;20234;-77
2023/04/15 08:53:46;;;;;;;17.13;14.40;;;12.50;99.90;;;;;;5070073;28;20353;-76
2023/04/15 08:56:19;;;;;;;18.00;16.20;;;12.60;99.90;;;;;;5094246;28;20226;-77
2023/04/15 08:58:51;;;;;;;17.75;15.93;;;12.50;99.90;;;;;;5093967;28;20249;-78
2023/04/15 09:01:19;;;;;;;16.50;14.85;;;12.50;99.90;;;;;;5084037;28;20691;-77
2023/04/15 09:03:49;;;;;;;14.52;13.20;;;12.60;99.90;;;;;;5095526;28;20235;-77
2023/04/15 09:06:20;;;;;;;15.57;14.07;;;12.60;99.90;;;;;;5099714;28;20227;-77
2023/04/15 09:08:59;;;;;;;16.80;15.02;;;12.70;99.90;;;;;;5100438;28;21037;-77
2023/04/15 09:11:31;;;;;;;17.63;15.93;;;12.70;99.90;;;;;;5085755;28;20239;-78
2023/04/15 09:13:59;;;;;;;16.77;15.13;;;12.70;99.90;;;;;;5091276;28;20223;-79
2023/04/15 09:16:28;;;;;;;16.20;14.68;;;12.70;99.90;;;;;;5092630;28;20868;-77
2023/04/15 09:19:01;;;;;;;16.00;14.57;;;12.60;99.90;;;;;;5079346;28;20379;-77
2023/04/15 09:21:35;;;;;;;15.25;13.65;;;12.70;99.90;;;;;;5103646;28;20237;-77
2023/04/15 09:24:06;;;;;;;15.23;13.63;;;12.70;99.90;;;;;;5099540;28;20358;-77
2023/04/15 09:26:39;;;;;;;15.35;13.93;;;12.70;99.90;;;;;;5071194;28;20258;-77
2023/04/15 09:29:12;;;;;;;17.23;15.43;;;12.60;99.90;;;;;;5091804;28;20212;-77
2023/04/15 09:31:42;;;;;;;15.05;13.65;;;12.60;99.90;;;;;;5080894;28;20331;-77
2023/04/15 09:34:10;;;;;;;15.07;13.68;;;12.60;99.90;;;;;;5081600;28;20302;-78
2023/04/15 09:36:56;;;;;;;16.55;15.15;;;12.50;99.90;;;;;;5075502;28;20246;-78
2023/04/15 09:39:24;;;;;;;16.23;14.63;;;12.50;99.90;;;;;;5083118;28;20233;-78
2023/04/15 09:42:06;;;;;;;14.60;13.27;;;12.50;99.90;;;;;;5066188;28;20251;-78
2023/04/15 09:44:37;;;;;;;14.95;13.60;;;12.60;99.90;;;;;;5059701;28;20224;-78
2023/04/15 09:47:04;;;;;;;16.08;14.43;;;12.60;99.90;;;;;;5080620;28;20314;-78
2023/04/15 09:49:36;;;;;;;16.60;15.00;;;12.60;99.90;;;;;;5089548;28;20669;-78
2023/04/15 09:52:32;;;;;;;17.42;15.80;;;12.60;99.90;;;;;;5089826;28;20234;-78
2023/04/15 09:55:00;;;;;;;18.42;14.73;;;12.70;99.90;;;;;;5058834;28;20664;-78
2023/04/15 09:57:35;;;;;;;15.17;13.80;;;12.60;99.90;;;;;;5090444;28;20621;-78
2023/04/15 10:00:04;;;;;;;14.60;13.20;;;12.70;99.90;;;;;;5068379;28;22990;-78
2023/04/15 10:02:31;;;;;;;15.00;13.63;;;12.70;99.90;;;;;;5092584;28;20286;-79
2023/04/15 10:05:00;;;;;;;14.50;13.13;;;12.70;99.90;;;;;;5090983;28;20239;-78
2023/04/15 10:07:27;;;;;;;17.05;15.45;;;12.70;99.90;;;;;;5092559;28;20438;-79
2023/04/15 10:09:58;;;;;;;14.10;12.73;;;12.70;99.90;;;;;;5092429;28;20555;-78
2023/04/15 10:12:26;;;;;;;14.77;13.48;;;12.80;99.90;;;;;;5091833;28;20227;-79
2023/04/15 10:15:06;;;;;;;15.73;14.23;;;12.80;99.90;;;;;;5080668;28;20306;-79
2023/04/15 10:17:35;;;;;;;14.40;13.10;;;12.80;99.90;;;;;;5087946;28;20280;-78
2023/04/15 10:20:06;;;;;;;15.40;13.95;;;12.80;99.90;;;;;;5084511;28;20242;-78
2023/04/15 10:22:33;;;;;;;16.13;14.63;;;12.80;99.90;;;;;;5086292;28;20514;-78
2023/04/15 10:25:08;;;;;;;14.50;13.10;;;12.80;99.90;;;;;;5095438;28;20334;-79
2023/04/15 10:27:36;;;;;;;15.23;13.73;;;12.70;99.90;;;;;;5078710;28;20241;-79
2023/04/15 10:30:25;;;;;;;16.10;14.55;;;12.70;99.90;;;;;;5095299;28;20223;-78
2023/04/15 10:33:02;;;;;;;15.93;14.20;;;12.70;99.90;;;;;;5071264;28;20653;-77
2023/04/15 10:35:32;;;;;;;16.48;14.98;;;12.70;99.90;;;;;;5103239;27;20291;-77
2023/04/15 10:38:06;;;;;;;16.50;14.80;;;12.70;99.90;;;;;;5102012;28;20677;-77
2023/04/15 10:40:33;;;;;;;14.52;13.20;;;12.70;99.90;;;;;;5094667;28;20227;-77
2023/04/15 10:43:08;;;;;;;14.85;13.35;;;12.70;99.90;;;;;;5081850;28;20228;-78
2023/04/15 10:45:55;;;;;;;14.18;12.90;;;12.80;99.90;;;;;;5083021;28;20223;-77
2023/04/15 10:48:26;;;;;;;15.00;13.50;;;12.80;99.90;;;;;;5084280;28;20309;-77
2023/04/15 10:51:08;;;;;;;16.55;14.85;;;12.90;99.90;;;;;;5090182;28;20218;-78
2023/04/15 10:53:56;;;;;;;15.65;14.25;;;12.80;99.90;;;;;;5093432;28;20224;-77
2023/04/15 10:56:24;;;;;;;18.13;16.25;;;12.90;99.90;;;;;;5084947;28;20267;-78
2023/04/15 10:58:51;;;;;;;17.13;15.40;;;13.00;99.90;;;;;;5092876;28;20851;-77
2023/04/15 11:04:03;;;;;;;17.25;15.75;;;12.90;99.90;;;;;;5075252;28;20336;-77
2023/04/15 11:06:56;;;;;;;14.35;13.05;;;12.90;99.90;;;;;;5087028;28;20230;-78
2023/04/15 11:09:35;;;;;;;15.48;14.15;;;13.00;99.90;;;;;;5096828;27;20606;-77
2023/04/15 11:12:25;;;;;;;16.00;14.38;;;13.00;99.90;;;;;;5094106;28;20219;-78
2023/04/15 11:14:58;;;;;;;14.98;13.65;;;13.00;99.90;;;;;;5087964;28;20284;-78
2023/04/15 11:17:29;;;;;;;16.58;15.10;;;13.10;99.90;;;;;;5075446;28;20220;-77
2023/04/15 11:19:59;;;;;;;16.40;14.88;;;13.00;99.90;;;;;;5091389;28;20293;-79
2023/04/15 11:22:26;;;;;;;25.92;15.30;;;13.00;99.90;;;;;;5100294;27;20276;-79
2023/04/15 11:25:06;;;;;;;17.38;15.85;;;13.00;99.90;;;;;;5114360;28;20288;-78
2023/04/15 11:27:33;;;;;;;17.23;15.75;;;13.00;99.90;;;;;;5118899;27;20223;-77
2023/04/15 11:30:02;;;;;;;14.35;12.85;;;12.90;99.90;;;;;;5103996;28;20665;-78
2023/04/15 11:32:56;;;;;;;16.13;14.63;;;12.90;99.90;;;;;;5084914;28;20227;-78
2023/04/15 11:35:23;;;;;;;15.63;14.32;;;12.90;99.90;;;;;;5104878;28;20242;-80
2023/04/15 11:37:50;;;;;;;16.10;14.60;;;13.00;99.90;;;;;;5114053;28;20237;-78
2023/04/15 11:40:22;;;;;;;15.20;13.85;;;13.00;99.90;;;;;;5088904;28;20219;-78
2023/04/15 11:43:04;;;;;;;15.98;14.48;;;13.00;99.90;;;;;;5102192;28;20670;-79
2023/04/15 11:46:07;;;;;;;16.50;14.90;;;13.00;99.90;;;;;;5089348;28;20242;-79
2023/04/15 11:48:55;;;;;;;13.02;11.82;;;13.00;99.90;;;;;;5088163;28;20292;-80
2023/04/15 11:51:22;;;;;;;15.00;13.50;;;13.00;99.90;;;;;;5102288;28;20219;-79
2023/04/15 11:53:50;;;;;;;16.00;14.45;;;13.00;99.90;;;;;;5110316;28;20707;-80
2023/04/15 11:56:28;;;;;;;15.70;14.20;;;13.00;99.90;;;;;;5100104;28;20262;-78
2023/04/15 11:58:57;;;;;;;16.08;14.57;;;12.90;99.90;;;;;;5107168;28;20245;-79
2023/04/15 12:01:58;;;;;;;15.15;13.85;;;12.90;99.90;;;;;;5092784;28;20227;-78
2023/04/15 12:04:30;;;;;;;14.70;13.25;;;13.00;99.90;;;;;;5106077;28;20238;-80
2023/04/15 12:07:05;;;;;;;16.60;15.00;;;13.00;99.90;;;;;;5102950;28;20300;-79
2023/04/15 12:09:38;;;;;;;13.15;11.90;;;13.00;99.90;;;;;;5088599;28;20257;-80
2023/04/15 12:12:06;;;;;;;13.40;12.10;;;13.00;99.90;;;;;;5100667;28;20247;-81
2023/04/15 12:14:43;;;;;;;15.40;14.02;;;13.00;99.90;;;;;;5082956;28;20230;-79
2023/04/15 12:17:12;;;;;;;15.30;13.73;;;13.00;99.90;;;;;;5109478;28;20242;-79
2023/04/15 12:19:41;;;;;;;14.65;13.25;;;13.00;99.90;;;;;;5109090;28;20238;-79
2023/04/15 12:22:16;;;;;;;15.13;13.68;;;13.00;99.90;;;;;;5088255;28;20253;-79
2023/04/15 12:24:46;;;;;;;14.13;12.93;;;13.00;99.90;;;;;;5111102;28;20230;-78
2023/04/15 12:27:15;;;;;;;14.15;12.75;;;13.00;99.90;;;;;;5107564;28;20285;-79
2023/04/15 12:29:43;;;;;;;14.15;12.85;;;13.00;99.90;;;;;;5101755;28;20220;-79
2023/04/15 12:32:26;;;;;;;15.55;14.02;;;13.00;99.90;;;;;;5083436;28;20232;-78
2023/04/15 12:35:18;;;;;;;14.55;12.77;;;13.00;99.90;;;;;;5086177;28;20321;-79
2023/04/15 12:37:45;;;;;;;16.45;14.80;;;13.00;99.90;;;;;;5102641;28;20221;-78
2023/04/15 12:40:13;;;;;;;15.25;13.82;;;13.00;99.90;;;;;;5113700;28;20249;-80
2023/04/15 12:42:40;;;;;;;13.38;12.10;;;13.00;99.90;;;;;;5093527;28;20238;-79
2023/04/15 12:45:11;;;;;;;13.10;11.90;;;13.00;99.90;;;;;;5083089;28;20274;-78
2023/04/15 12:47:40;;;;;;;15.15;13.65;;;13.10;99.90;;;;;;5095350;28;20223;-79